sensor_id;sensor_type;location;lat;lon;timestamp;temperature;humidity
67890;DHT22;54685;52.082;5.426;2024-02-04T00:02:10;10.00;99.90
67890;DHT22;54685;52.082;5.426;2024-02-04T00:04:40;10.00;99.90
67890;DHT22;54685;52.082;5.426;2024-02-04T00:07:08;9.90;99.90
67890;DHT22;54685;52.082;5.426;2024-02-04T00:09:35;9.90;99.90
67890;DHT22;54685;52.082;5.426;2024-02-04T00:12:03;9.90;99.90
67890;DHT22;54685;52.082;5.426;2024-02-04T00:14:31;9.90;99.90
67890;DHT22;54685;52.082;5.426;2024-02-04T00:16:58;9.90;99.90
67890;DHT22;54685;52.082;5.426;2024-02-04T00:19:25;9.90;99.90
67890;DHT22;54685;52.082;5.426;2024-02-04T00:21:53;9.90;99.90
67890;DHT22;54685;52.082;5.426;2024-02-04T00:24:20;9.90;99.90
67890;DHT22;54685;52.082;5.426;2024-02-04T00:26:47;10.00;99.90
67890;DHT22;54685;52.082;5.426;2024-02-04T00:29:14;9.90;99.90
67890;DHT22;54685;52.082;5.426;2024-02-04T00:31:41;9.90;99.90
67890;DHT22;54685;52.082;5.426;2024-02-04T00:34:07;10.00;99.90
67890;DHT22;54685;52.082;5.426;2024-02-04T00:36:34;10.00;99.90
67890;DHT22;54685;52.082;5.426;2024-02-04T00:39:01;10.00;99.90
67890;DHT22;54685;52.082;5.426;2024-02-04T00:41:29;10.00;99.90
67890;DHT22;54685;52.082;5.426;2024-02-04T00:43:56;10.00;99.90
67890;DHT22;54685;52.082;5.426;2024-02-04T00:46:23;10.00;99.90
67890;DHT22;54685;52.082;5.426;2024-02-04T00:48:50;10.00;99.90
67890;DHT22;54685;52.082;5.426;2024-02-04T00:51:17;10.10;99.90
67890;DHT22;54685;52.082;5.426;2024-02-04T00:53:46;10.10;99.90
67890;DHT22;54685;52.082;5.426;2024-02-04T00:56:13;10.10;99.90
67890;DHT22;54685;52.082;5.426;2024-02-04T00:58:40;10.10;99.90
67890;DHT22;54685;52.082;5.426;2024-02-04T01:01:07;10.10;99.90
67890;DHT22;54685;52.082;5.426;2024-02-04T01:03:34;10.00;99.90
67890;DHT22;54685;52.082;5.426;2024-02-04T01:06:01;10.00;99.90
67890;DHT22;54685;52.082;5.426;2024-02-04T01:08:28;10.00;99.90
67890;DHT22;54685;52.082;5.426;2024-02-04T01:10:55;10.00;99.90
67890;DHT22;54685;52.082;5.426;2024-02-04T01:13:22;10.10;99.90
67890;DHT22;54685;52.082;5.426;2024-02-04T01:15:48;10.00;99.90
67890;DHT22;54685;52.082;5.426;2024-02-04T01:18:24;10.00;99.90
67890;DHT22;54685;52.082;5.426;2024-02-04T01:20:51;10.10;99.90
67890;DHT22;54685;52.082;5.426;2024-02-04T01:23:18;10.00;99.90
67890;DHT22;54685;52.082;5.426;2024-02-04T01:25:46;10.00;99.90
67890;DHT22;54685;52.082;5.426;2024-02-04T01:28:13;10.00;99.90
67890;DHT22;54685;52.082;5.426;2024-02-04T01:30:40;10.00;99.90
67890;DHT22;54685;52.082;5.426;2024-02-04T01:33:06;10.00;99.90
67890;DHT22;54685;52.082;5.426;2024-02-04T01:35:33;10.00;99.90
67890;DHT22;54685;52.082;5.426;2024-02-04T01:38:03;10.00;99.90
67890;DHT22;54685;52.082;5.426;2024-02-04T01:40:30;10.00;99.90
67890;DHT22;54685;52.082;5.426;2024-02-04T01:42:57;10.00;99.90
67890;DHT22;54685;52.082;5.426;2024-02-04T01:45:24;10.00;99.90
67890;DHT22;54685;52.082;5.426;2024-02-04T01:47:51;10.00;99.90
67890;DHT22;54685;52.082;5.426;2024-02-04T01:50:23;10.00;99.90
67890;DHT22;54685;52.082;5.426;2024-02-04T01:52:51;9.90;99.90
67890;DHT22;54685;52.082;5.426;2024-02-04T01:55:19;9.90;99.90
67890;DHT22;54685;52.082;5.426;2024-02-04T01:57:48;9.90;99.90
67890;DHT22;54685;52.082;5.426;2024-02-04T02:00:16;10.00;99.90
67890;DHT22;54685;52.082;5.426;2024-02-04T02:02:46;9.90;99.90
67890;DHT22;54685;52.082;5.426;2024-02-04T02:05:13;9.90;99.90
67890;DHT22;54685;52.082;5.426;2024-02-04T02:07:40;9.80;99.90
67890;DHT22;54685;52.082;5.426;2024-02-04T02:10:07;9.80;99.90
67890;DHT22;54685;52.082;5.426;2024-02-04T02:12:48;9.80;99.90
67890;DHT22;54685;52.082;5.426;2024-02-04T02:15:22;9.80;99.90
67890;DHT22;54685;52.082;5.426;2024-02-04T02:17:58;9.80;99.90
67890;DHT22;54685;52.082;5.426;2024-02-04T02:23:11;9.70;99.90
67890;DHT22;54685;52.082;5.426;2024-02-04T02:25:40;9.70;99.90
67890;DHT22;54685;52.082;5.426;2024-02-04T02:28:07;9.70;99.90
67890;DHT22;54685;52.082;5.426;2024-02-04T02:30:34;9.60;99.90
67890;DHT22;54685;52.082;5.426;2024-02-04T02:33:01;9.60;99.90
67890;DHT22;54685;52.082;5.426;2024-02-04T02:35:29;9.60;99.90
67890;DHT22;54685;52.082;5.426;2024-02-04T02:38:13;9.50;99.90
67890;DHT22;54685;52.082;5.426;2024-02-04T02:40:54;9.60;99.90
67890;DHT22;54685;52.082;5.426;2024-02-04T02:43:24;9.60;99.90
67890;DHT22;54685;52.082;5.426;2024-02-04T02:45:52;9.50;99.90
67890;DHT22;54685;52.082;5.426;2024-02-04T02:48:20;9.50;99.90
67890;DHT22;54685;52.082;5.426;2024-02-04T02:50:47;9.50;99.90
67890;DHT22;54685;52.082;5.426;2024-02-04T02:53:14;9.50;99.90
67890;DHT22;54685;52.082;5.426;2024-02-04T02:55:41;9.50;99.90
67890;DHT22;54685;52.082;5.426;2024-02-04T02:58:08;9.50;99.90
67890;DHT22;54685;52.082;5.426;2024-02-04T03:00:35;9.60;99.90
67890;DHT22;54685;52.082;5.426;2024-02-04T03:03:04;9.60;99.90
67890;DHT22;54685;52.082;5.426;2024-02-04T03:05:31;9.60;99.90
67890;DHT22;54685;52.082;5.426;2024-02-04T03:07:59;9.60;99.90
67890;DHT22;54685;52.082;5.426;2024-02-04T03:10:25;9.60;99.90
67890;DHT22;54685;52.082;5.426;2024-02-04T03:12:52;9.60;99.90
67890;DHT22;54685;52.082;5.426;2024-02-04T03:15:19;9.70;99.90
67890;DHT22;54685;52.082;5.426;2024-02-04T03:17:46;9.70;99.90
67890;DHT22;54685;52.082;5.426;2024-02-04T03:20:13;9.70;99.90
67890;DHT22;54685;52.082;5.426;2024-02-04T03:22:40;9.60;99.90
67890;DHT22;54685;52.082;5.426;2024-02-04T03:25:07;9.60;99.90
67890;DHT22;54685;52.082;5.426;2024-02-04T03:27:34;9.60;99.90
67890;DHT22;54685;52.082;5.426;2024-02-04T03:30:01;9.60;99.90
67890;DHT22;54685;52.082;5.426;2024-02-04T03:32:28;9.60;99.90
67890;DHT22;54685;52.082;5.426;2024-02-04T03:35:01;9.50;99.90
67890;DHT22;54685;52.082;5.426;2024-02-04T03:37:28;9.50;99.90
67890;DHT22;54685;52.082;5.426;2024-02-04T03:39:55;9.50;99.90
67890;DHT22;54685;52.082;5.426;2024-02-04T03:42:22;9.50;99.90
67890;DHT22;54685;52.082;5.426;2024-02-04T03:44:50;9.40;99.90
67890;DHT22;54685;52.082;5.426;2024-02-04T03:47:17;9.40;99.90
67890;DHT22;54685;52.082;5.426;2024-02-04T03:49:44;9.40;99.90
67890;DHT22;54685;52.082;5.426;2024-02-04T03:52:11;9.40;99.90
67890;DHT22;54685;52.082;5.426;2024-02-04T03:54:41;9.40;99.90
67890;DHT22;54685;52.082;5.426;2024-02-04T03:57:07;9.40;99.90
67890;DHT22;54685;52.082;5.426;2024-02-04T03:59:35;9.30;99.90
67890;DHT22;54685;52.082;5.426;2024-02-04T04:02:02;9.30;99.90
67890;DHT22;54685;52.082;5.426;2024-02-04T04:04:29;9.30;99.90
67890;DHT22;54685;52.082;5.426;2024-02-04T04:06:56;9.30;99.90
67890;DHT22;54685;52.082;5.426;2024-02-04T04:09:23;9.30;99.90
67890;DHT22;54685;52.082;5.426;2024-02-04T04:11:50;9.30;99.90
67890;DHT22;54685;52.082;5.426;2024-02-04T04:14:32;9.30;99.90
67890;DHT22;54685;52.082;5.426;2024-02-04T04:16:59;9.50;99.90
67890;DHT22;54685;52.082;5.426;2024-02-04T04:19:26;9.40;99.90
67890;DHT22;54685;52.082;5.426;2024-02-04T04:21:53;9.40;99.90
67890;DHT22;54685;52.082;5.426;2024-02-04T04:24:21;9.40;99.90
67890;DHT22;54685;52.082;5.426;2024-02-04T04:26:49;9.40;99.90
67890;DHT22;54685;52.082;5.426;2024-02-04T04:29:15;9.40;99.90
67890;DHT22;54685;52.082;5.426;2024-02-04T04:31:42;9.40;99.90
67890;DHT22;54685;52.082;5.426;2024-02-04T04:34:09;9.40;99.90
67890;DHT22;54685;52.082;5.426;2024-02-04T04:36:36;9.30;99.90
67890;DHT22;54685;52.082;5.426;2024-02-04T04:39:03;9.40;99.90
67890;DHT22;54685;52.082;5.426;2024-02-04T04:41:29;9.30;99.90
67890;DHT22;54685;52.082;5.426;2024-02-04T04:43:56;9.30;99.90
67890;DHT22;54685;52.082;5.426;2024-02-04T04:46:23;9.20;99.90
67890;DHT22;54685;52.082;5.426;2024-02-04T04:48:51;9.20;99.90
67890;DHT22;54685;52.082;5.426;2024-02-04T04:51:19;9.20;99.90
67890;DHT22;54685;52.082;5.426;2024-02-04T04:53:46;9.20;99.90
67890;DHT22;54685;52.082;5.426;2024-02-04T04:56:16;9.10;99.90
67890;DHT22;54685;52.082;5.426;2024-02-04T04:58:43;9.20;99.90
67890;DHT22;54685;52.082;5.426;2024-02-04T05:01:10;9.10;99.90
67890;DHT22;54685;52.082;5.426;2024-02-04T05:03:37;9.10;99.90
67890;DHT22;54685;52.082;5.426;2024-02-04T05:06:04;9.10;99.90
67890;DHT22;54685;52.082;5.426;2024-02-04T05:08:31;9.10;99.90
67890;DHT22;54685;52.082;5.426;2024-02-04T05:10:58;9.10;99.90
67890;DHT22;54685;52.082;5.426;2024-02-04T05:13:25;9.10;99.90
67890;DHT22;54685;52.082;5.426;2024-02-04T05:15:51;9.20;99.90
67890;DHT22;54685;52.082;5.426;2024-02-04T05:18:18;9.20;99.90
67890;DHT22;54685;52.082;5.426;2024-02-04T05:20:45;9.20;99.90
67890;DHT22;54685;52.082;5.426;2024-02-04T05:23:12;9.20;99.90
67890;DHT22;54685;52.082;5.426;2024-02-04T05:25:39;9.20;99.90
67890;DHT22;54685;52.082;5.426;2024-02-04T05:28:06;9.20;99.90
67890;DHT22;54685;52.082;5.426;2024-02-04T05:30:33;9.30;99.90
67890;DHT22;54685;52.082;5.426;2024-02-04T05:33:00;9.30;99.90
67890;DHT22;54685;52.082;5.426;2024-02-04T05:35:27;9.30;99.90
67890;DHT22;54685;52.082;5.426;2024-02-04T05:37:53;9.30;99.90
67890;DHT22;54685;52.082;5.426;2024-02-04T05:40:20;9.30;99.90
67890;DHT22;54685;52.082;5.426;2024-02-04T05:42:47;9.30;99.90
67890;DHT22;54685;52.082;5.426;2024-02-04T05:45:14;9.30;99.90
67890;DHT22;54685;52.082;5.426;2024-02-04T05:47:41;9.20;99.90
67890;DHT22;54685;52.082;5.426;2024-02-04T05:50:08;9.20;99.90
67890;DHT22;54685;52.082;5.426;2024-02-04T05:52:35;9.20;99.90
67890;DHT22;54685;52.082;5.426;2024-02-04T05:55:02;9.30;99.90
67890;DHT22;54685;52.082;5.426;2024-02-04T05:57:31;9.20;99.90
67890;DHT22;54685;52.082;5.426;2024-02-04T05:59:59;9.20;99.90
67890;DHT22;54685;52.082;5.426;2024-02-04T06:02:26;9.20;99.90
67890;DHT22;54685;52.082;5.426;2024-02-04T06:04:53;9.20;99.90
67890;DHT22;54685;52.082;5.426;2024-02-04T06:07:21;9.20;99.90
67890;DHT22;54685;52.082;5.426;2024-02-04T06:09:48;9.20;99.90
67890;DHT22;54685;52.082;5.426;2024-02-04T06:12:15;9.20;99.90
67890;DHT22;54685;52.082;5.426;2024-02-04T06:14:42;9.20;99.90
67890;DHT22;54685;52.082;5.426;2024-02-04T06:17:09;9.30;99.90
67890;DHT22;54685;52.082;5.426;2024-02-04T06:19:36;9.20;99.90
67890;DHT22;54685;52.082;5.426;2024-02-04T06:22:06;9.20;99.90
67890;DHT22;54685;52.082;5.426;2024-02-04T06:24:36;9.20;99.90
67890;DHT22;54685;52.082;5.426;2024-02-04T06:27:05;9.20;99.90
67890;DHT22;54685;52.082;5.426;2024-02-04T06:29:32;9.30;99.90
67890;DHT22;54685;52.082;5.426;2024-02-04T06:31:59;9.30;99.90
67890;DHT22;54685;52.082;5.426;2024-02-04T06:34:26;9.30;99.90
67890;DHT22;54685;52.082;5.426;2024-02-04T06:36:53;9.30;99.90
67890;DHT22;54685;52.082;5.426;2024-02-04T06:39:20;9.30;99.90
67890;DHT22;54685;52.082;5.426;2024-02-04T06:41:47;9.30;99.90
67890;DHT22;54685;52.082;5.426;2024-02-04T06:44:14;9.30;99.90
67890;DHT22;54685;52.082;5.426;2024-02-04T06:46:45;9.30;99.90
67890;DHT22;54685;52.082;5.426;2024-02-04T06:49:13;9.30;99.90
67890;DHT22;54685;52.082;5.426;2024-02-04T06:51:44;9.30;99.90
67890;DHT22;54685;52.082;5.426;2024-02-04T06:54:12;9.40;99.90
67890;DHT22;54685;52.082;5.426;2024-02-04T06:56:39;9.50;99.90
67890;DHT22;54685;52.082;5.426;2024-02-04T06:59:06;9.50;99.90
67890;DHT22;54685;52.082;5.426;2024-02-04T07:01:36;9.50;99.90
67890;DHT22;54685;52.082;5.426;2024-02-04T07:04:03;9.50;99.90
67890;DHT22;54685;52.082;5.426;2024-02-04T07:06:30;9.50;99.90
67890;DHT22;54685;52.082;5.426;2024-02-04T07:08:57;9.50;99.90
67890;DHT22;54685;52.082;5.426;2024-02-04T07:11:23;9.50;99.90
67890;DHT22;54685;52.082;5.426;2024-02-04T07:13:50;9.50;99.90
67890;DHT22;54685;52.082;5.426;2024-02-04T07:16:25;9.60;99.90
67890;DHT22;54685;52.082;5.426;2024-02-04T07:19:10;9.60;99.90
67890;DHT22;54685;52.082;5.426;2024-02-04T07:21:37;9.60;99.90
67890;DHT22;54685;52.082;5.426;2024-02-04T07:24:04;9.70;99.90
67890;DHT22;54685;52.082;5.426;2024-02-04T07:26:31;9.80;99.90
67890;DHT22;54685;52.082;5.426;2024-02-04T07:28:58;9.80;99.90
67890;DHT22;54685;52.082;5.426;2024-02-04T07:31:25;9.80;99.90
67890;DHT22;54685;52.082;5.426;2024-02-04T07:33:52;9.70;99.90
67890;DHT22;54685;52.082;5.426;2024-02-04T07:36:19;9.70;99.90
67890;DHT22;54685;52.082;5.426;2024-02-04T07:38:46;9.70;99.90
67890;DHT22;54685;52.082;5.426;2024-02-04T07:41:21;9.70;99.90
67890;DHT22;54685;52.082;5.426;2024-02-04T07:43:48;9.80;99.90
67890;DHT22;54685;52.082;5.426;2024-02-04T07:46:15;9.80;99.90
67890;DHT22;54685;52.082;5.426;2024-02-04T07:48:42;9.80;99.90
67890;DHT22;54685;52.082;5.426;2024-02-04T07:51:09;9.90;99.90
67890;DHT22;54685;52.082;5.426;2024-02-04T07:53:46;9.80;99.90
67890;DHT22;54685;52.082;5.426;2024-02-04T07:56:13;9.80;99.90
67890;DHT22;54685;52.082;5.426;2024-02-04T07:58:40;9.80;99.90
67890;DHT22;54685;52.082;5.426;2024-02-04T08:01:07;9.90;99.90
67890;DHT22;54685;52.082;5.426;2024-02-04T08:03:41;9.90;99.90
67890;DHT22;54685;52.082;5.426;2024-02-04T08:06:08;9.90;99.90
67890;DHT22;54685;52.082;5.426;2024-02-04T08:08:35;9.90;99.90
67890;DHT22;54685;52.082;5.426;2024-02-04T08:11:02;9.90;99.90
67890;DHT22;54685;52.082;5.426;2024-02-04T08:13:29;9.90;99.90
67890;DHT22;54685;52.082;5.426;2024-02-04T08:15:58;10.00;99.90
67890;DHT22;54685;52.082;5.426;2024-02-04T08:18:25;10.00;99.90
67890;DHT22;54685;52.082;5.426;2024-02-04T08:20:52;9.90;99.90
67890;DHT22;54685;52.082;5.426;2024-02-04T08:23:19;9.90;99.90
67890;DHT22;54685;52.082;5.426;2024-02-04T08:25:46;9.90;99.90
67890;DHT22;54685;52.082;5.426;2024-02-04T08:28:13;9.90;99.90
67890;DHT22;54685;52.082;5.426;2024-02-04T08:30:40;10.00;99.90
67890;DHT22;54685;52.082;5.426;2024-02-04T08:33:07;10.00;99.90
67890;DHT22;54685;52.082;5.426;2024-02-04T08:35:35;10.00;99.90
67890;DHT22;54685;52.082;5.426;2024-02-04T08:38:02;10.00;99.90
67890;DHT22;54685;52.082;5.426;2024-02-04T08:40:29;9.90;99.90
67890;DHT22;54685;52.082;5.426;2024-02-04T08:42:55;9.90;99.90
67890;DHT22;54685;52.082;5.426;2024-02-04T08:45:22;9.90;99.90
67890;DHT22;54685;52.082;5.426;2024-02-04T08:47:49;10.00;99.90
67890;DHT22;54685;52.082;5.426;2024-02-04T08:50:16;10.00;99.90
67890;DHT22;54685;52.082;5.426;2024-02-04T08:52:43;10.00;99.90
67890;DHT22;54685;52.082;5.426;2024-02-04T08:55:10;10.00;99.90
67890;DHT22;54685;52.082;5.426;2024-02-04T08:57:37;10.10;99.90
67890;DHT22;54685;52.082;5.426;2024-02-04T09:00:04;10.10;99.90
67890;DHT22;54685;52.082;5.426;2024-02-04T09:02:31;10.10;99.90
67890;DHT22;54685;52.082;5.426;2024-02-04T09:04:58;10.10;99.90
67890;DHT22;54685;52.082;5.426;2024-02-04T09:07:25;10.00;99.90
67890;DHT22;54685;52.082;5.426;2024-02-04T09:09:52;10.10;99.90
67890;DHT22;54685;52.082;5.426;2024-02-04T09:12:19;10.10;99.90
67890;DHT22;54685;52.082;5.426;2024-02-04T09:14:46;10.10;99.90
67890;DHT22;54685;52.082;5.426;2024-02-04T09:17:13;10.20;99.90
67890;DHT22;54685;52.082;5.426;2024-02-04T09:19:40;10.30;99.90
67890;DHT22;54685;52.082;5.426;2024-02-04T09:22:09;10.30;99.90
67890;DHT22;54685;52.082;5.426;2024-02-04T09:24:36;10.30;99.90
67890;DHT22;54685;52.082;5.426;2024-02-04T09:27:04;10.30;99.90
67890;DHT22;54685;52.082;5.426;2024-02-04T09:29:31;10.30;99.90
67890;DHT22;54685;52.082;5.426;2024-02-04T09:31:59;10.30;99.90
67890;DHT22;54685;52.082;5.426;2024-02-04T09:34:28;10.40;99.90
67890;DHT22;54685;52.082;5.426;2024-02-04T09:36:55;10.40;99.90
67890;DHT22;54685;52.082;5.426;2024-02-04T09:39:23;10.40;99.90
67890;DHT22;54685;52.082;5.426;2024-02-04T09:41:50;10.40;99.90
67890;DHT22;54685;52.082;5.426;2024-02-04T09:44:17;10.40;99.90
67890;DHT22;54685;52.082;5.426;2024-02-04T09:46:45;10.50;99.90
67890;DHT22;54685;52.082;5.426;2024-02-04T09:49:13;10.50;99.90
67890;DHT22;54685;52.082;5.426;2024-02-04T09:51:41;10.50;99.90
67890;DHT22;54685;52.082;5.426;2024-02-04T09:54:10;10.50;99.90
67890;DHT22;54685;52.082;5.426;2024-02-04T09:56:38;10.60;99.90
67890;DHT22;54685;52.082;5.426;2024-02-04T09:59:07;10.60;99.90
67890;DHT22;54685;52.082;5.426;2024-02-04T10:01:35;10.50;99.90
67890;DHT22;54685;52.082;5.426;2024-02-04T10:04:02;10.60;99.90
67890;DHT22;54685;52.082;5.426;2024-02-04T10:06:30;10.60;99.90
67890;DHT22;54685;52.082;5.426;2024-02-04T10:08:57;10.80;99.90
67890;DHT22;54685;52.082;5.426;2024-02-04T10:11:24;10.70;99.90
67890;DHT22;54685;52.082;5.426;2024-02-04T10:13:51;10.80;99.90
67890;DHT22;54685;52.082;5.426;2024-02-04T10:16:19;10.80;99.90
67890;DHT22;54685;52.082;5.426;2024-02-04T10:18:48;10.80;99.90
67890;DHT22;54685;52.082;5.426;2024-02-04T10:21:16;10.80;99.90
67890;DHT22;54685;52.082;5.426;2024-02-04T10:23:48;10.80;99.90
67890;DHT22;54685;52.082;5.426;2024-02-04T10:26:16;10.80;99.90
67890;DHT22;54685;52.082;5.426;2024-02-04T10:28:46;10.80;99.90
67890;DHT22;54685;52.082;5.426;2024-02-04T10:31:15;10.80;99.90
67890;DHT22;54685;52.082;5.426;2024-02-04T10:33:44;10.80;99.90
67890;DHT22;54685;52.082;5.426;2024-02-04T10:36:12;10.80;99.90
67890;DHT22;54685;52.082;5.426;2024-02-04T10:38:49;10.90;99.90
67890;DHT22;54685;52.082;5.426;2024-02-04T10:41:18;11.00;99.90
67890;DHT22;54685;52.082;5.426;2024-02-04T10:43:44;11.00;99.90
67890;DHT22;54685;52.082;5.426;2024-02-04T10:46:19;11.00;99.90
67890;DHT22;54685;52.082;5.426;2024-02-04T10:48:59;11.10;99.90
67890;DHT22;54685;52.082;5.426;2024-02-04T10:51:27;11.00;99.90
67890;DHT22;54685;52.082;5.426;2024-02-04T10:53:55;11.10;99.90
67890;DHT22;54685;52.082;5.426;2024-02-04T10:56:32;11.00;99.90
67890;DHT22;54685;52.082;5.426;2024-02-04T10:58:59;11.00;99.90
67890;DHT22;54685;52.082;5.426;2024-02-04T11:01:30;11.00;99.90
67890;DHT22;54685;52.082;5.426;2024-02-04T11:03:58;11.00;99.90
67890;DHT22;54685;52.082;5.426;2024-02-04T11:06:26;11.00;99.90
67890;DHT22;54685;52.082;5.426;2024-02-04T11:08:55;11.00;99.90
67890;DHT22;54685;52.082;5.426;2024-02-04T11:11:26;10.90;99.90
67890;DHT22;54685;52.082;5.426;2024-02-04T11:13:56;10.90;99.90
67890;DHT22;54685;52.082;5.426;2024-02-04T11:27:25;10.60;99.90
67890;DHT22;54685;52.082;5.426;2024-02-04T11:29:53;10.50;99.90
67890;DHT22;54685;52.082;5.426;2024-02-04T11:32:20;10.60;99.90
67890;DHT22;54685;52.082;5.426;2024-02-04T11:34:47;10.60;99.90
67890;DHT22;54685;52.082;5.426;2024-02-04T11:37:18;10.70;99.90
67890;DHT22;54685;52.082;5.426;2024-02-04T11:39:54;10.60;99.90
67890;DHT22;54685;52.082;5.426;2024-02-04T11:42:31;10.60;99.90
67890;DHT22;54685;52.082;5.426;2024-02-04T11:45:12;10.60;99.90
67890;DHT22;54685;52.082;5.426;2024-02-04T11:47:44;10.60;99.90
67890;DHT22;54685;52.082;5.426;2024-02-04T11:50:11;10.60;99.90
67890;DHT22;54685;52.082;5.426;2024-02-04T11:52:40;10.60;99.90
67890;DHT22;54685;52.082;5.426;2024-02-04T11:55:14;10.70;99.90
67890;DHT22;54685;52.082;5.426;2024-02-04T11:57:41;10.70;99.90
67890;DHT22;54685;52.082;5.426;2024-02-04T12:00:08;10.70;99.90
67890;DHT22;54685;52.082;5.426;2024-02-04T12:02:37;10.70;99.90
67890;DHT22;54685;52.082;5.426;2024-02-04T12:05:05;10.60;99.90
67890;DHT22;54685;52.082;5.426;2024-02-04T12:07:33;10.70;99.90
67890;DHT22;54685;52.082;5.426;2024-02-04T12:10:00;10.70;99.90
67890;DHT22;54685;52.082;5.426;2024-02-04T12:12:27;10.70;99.90
67890;DHT22;54685;52.082;5.426;2024-02-04T12:14:55;10.80;99.90
67890;DHT22;54685;52.082;5.426;2024-02-04T12:17:22;10.70;99.90
67890;DHT22;54685;52.082;5.426;2024-02-04T12:19:49;10.70;99.90
67890;DHT22;54685;52.082;5.426;2024-02-04T12:22:17;10.80;99.90
67890;DHT22;54685;52.082;5.426;2024-02-04T12:24:45;10.70;99.90
67890;DHT22;54685;52.082;5.426;2024-02-04T12:27:15;10.70;99.90
67890;DHT22;54685;52.082;5.426;2024-02-04T12:29:42;10.70;99.90
67890;DHT22;54685;52.082;5.426;2024-02-04T12:32:09;10.80;99.90
67890;DHT22;54685;52.082;5.426;2024-02-04T12:34:40;10.80;99.90
67890;DHT22;54685;52.082;5.426;2024-02-04T12:37:13;10.90;99.90
67890;DHT22;54685;52.082;5.426;2024-02-04T12:39:40;10.90;99.90
67890;DHT22;54685;52.082;5.426;2024-02-04T12:42:07;10.90;99.90
67890;DHT22;54685;52.082;5.426;2024-02-04T12:44:34;11.00;99.90
67890;DHT22;54685;52.082;5.426;2024-02-04T12:47:01;11.00;99.90
67890;DHT22;54685;52.082;5.426;2024-02-04T12:49:28;10.90;99.90
67890;DHT22;54685;52.082;5.426;2024-02-04T12:52:04;11.00;99.90
67890;DHT22;54685;52.082;5.426;2024-02-04T12:54:40;11.00;99.90
67890;DHT22;54685;52.082;5.426;2024-02-04T12:57:08;10.90;99.90
67890;DHT22;54685;52.082;5.426;2024-02-04T12:59:38;10.90;99.90
67890;DHT22;54685;52.082;5.426;2024-02-04T13:02:07;10.90;99.90
67890;DHT22;54685;52.082;5.426;2024-02-04T13:04:39;10.90;99.90
67890;DHT22;54685;52.082;5.426;2024-02-04T13:07:07;11.00;99.90
67890;DHT22;54685;52.082;5.426;2024-02-04T13:09:36;11.00;99.90
67890;DHT22;54685;52.082;5.426;2024-02-04T13:12:04;10.90;99.90
67890;DHT22;54685;52.082;5.426;2024-02-04T13:14:31;10.90;99.90
67890;DHT22;54685;52.082;5.426;2024-02-04T13:16:58;10.80;99.90
67890;DHT22;54685;52.082;5.426;2024-02-04T13:19:38;10.90;99.90
67890;DHT22;54685;52.082;5.426;2024-02-04T13:22:05;10.80;99.90
67890;DHT22;54685;52.082;5.426;2024-02-04T13:24:33;10.80;99.90
67890;DHT22;54685;52.082;5.426;2024-02-04T13:27:02;10.80;99.90
67890;DHT22;54685;52.082;5.426;2024-02-04T13:29:30;10.80;99.90
67890;DHT22;54685;52.082;5.426;2024-02-04T13:31:57;10.80;99.90
67890;DHT22;54685;52.082;5.426;2024-02-04T13:34:24;10.80;99.90
67890;DHT22;54685;52.082;5.426;2024-02-04T13:36:51;10.90;99.90
67890;DHT22;54685;52.082;5.426;2024-02-04T13:39:18;10.90;99.90
67890;DHT22;54685;52.082;5.426;2024-02-04T13:41:45;10.90;99.90
67890;DHT22;54685;52.082;5.426;2024-02-04T13:44:12;10.90;99.90
67890;DHT22;54685;52.082;5.426;2024-02-04T13:46:40;10.80;99.90
67890;DHT22;54685;52.082;5.426;2024-02-04T13:49:12;10.80;99.90
67890;DHT22;54685;52.082;5.426;2024-02-04T13:51:39;10.90;99.90
67890;DHT22;54685;52.082;5.426;2024-02-04T13:54:11;10.80;99.90
67890;DHT22;54685;52.082;5.426;2024-02-04T13:56:43;10.90;99.90
67890;DHT22;54685;52.082;5.426;2024-02-04T13:59:10;10.90;99.90
67890;DHT22;54685;52.082;5.426;2024-02-04T14:01:37;10.90;99.90
67890;DHT22;54685;52.082;5.426;2024-02-04T14:04:04;10.90;99.90
67890;DHT22;54685;52.082;5.426;2024-02-04T14:06:31;10.90;99.90
67890;DHT22;54685;52.082;5.426;2024-02-04T14:08:58;11.00;99.90
67890;DHT22;54685;52.082;5.426;2024-02-04T14:11:25;11.00;99.90
67890;DHT22;54685;52.082;5.426;2024-02-04T14:13:52;10.90;99.90
67890;DHT22;54685;52.082;5.426;2024-02-04T14:16:18;11.00;99.90
67890;DHT22;54685;52.082;5.426;2024-02-04T14:18:45;11.00;99.90
67890;DHT22;54685;52.082;5.426;2024-02-04T14:21:13;10.90;99.90
67890;DHT22;54685;52.082;5.426;2024-02-04T14:23:45;11.00;99.90
67890;DHT22;54685;52.082;5.426;2024-02-04T14:26:16;11.10;99.90
67890;DHT22;54685;52.082;5.426;2024-02-04T14:28:44;11.10;99.90
67890;DHT22;54685;52.082;5.426;2024-02-04T14:31:11;11.20;99.90
67890;DHT22;54685;52.082;5.426;2024-02-04T14:33:38;11.20;99.90
67890;DHT22;54685;52.082;5.426;2024-02-04T14:36:07;11.10;99.90
67890;DHT22;54685;52.082;5.426;2024-02-04T14:38:36;11.20;99.90
67890;DHT22;54685;52.082;5.426;2024-02-04T14:41:05;11.10;99.90
67890;DHT22;54685;52.082;5.426;2024-02-04T14:43:33;11.10;99.90
67890;DHT22;54685;52.082;5.426;2024-02-04T14:46:00;11.20;99.90
67890;DHT22;54685;52.082;5.426;2024-02-04T14:48:27;11.20;99.90
67890;DHT22;54685;52.082;5.426;2024-02-04T14:50:55;11.20;99.90
67890;DHT22;54685;52.082;5.426;2024-02-04T14:53:24;11.20;99.90
67890;DHT22;54685;52.082;5.426;2024-02-04T14:55:51;11.20;99.90
67890;DHT22;54685;52.082;5.426;2024-02-04T14:58:18;11.30;99.90
67890;DHT22;54685;52.082;5.426;2024-02-04T15:00:45;11.30;99.90
67890;DHT22;54685;52.082;5.426;2024-02-04T15:03:13;11.30;99.90
67890;DHT22;54685;52.082;5.426;2024-02-04T15:05:40;11.40;99.90
67890;DHT22;54685;52.082;5.426;2024-02-04T15:08:10;11.30;99.90
67890;DHT22;54685;52.082;5.426;2024-02-04T15:10:37;11.30;99.90
67890;DHT22;54685;52.082;5.426;2024-02-04T15:13:05;11.30;99.90
67890;DHT22;54685;52.082;5.426;2024-02-04T15:15:33;11.40;99.90
67890;DHT22;54685;52.082;5.426;2024-02-04T15:18:00;11.40;99.90
67890;DHT22;54685;52.082;5.426;2024-02-04T15:20:27;11.40;99.90
67890;DHT22;54685;52.082;5.426;2024-02-04T15:22:55;11.30;99.90
67890;DHT22;54685;52.082;5.426;2024-02-04T15:25:26;11.30;99.90
67890;DHT22;54685;52.082;5.426;2024-02-04T15:27:54;11.30;99.90
67890;DHT22;54685;52.082;5.426;2024-02-04T15:30:25;11.30;99.90
67890;DHT22;54685;52.082;5.426;2024-02-04T15:32:53;11.20;99.90
67890;DHT22;54685;52.082;5.426;2024-02-04T15:35:21;11.20;99.90
67890;DHT22;54685;52.082;5.426;2024-02-04T15:37:48;11.10;99.90
67890;DHT22;54685;52.082;5.426;2024-02-04T15:40:15;11.10;99.90
67890;DHT22;54685;52.082;5.426;2024-02-04T15:42:42;11.20;99.90
67890;DHT22;54685;52.082;5.426;2024-02-04T15:45:10;11.10;99.90
67890;DHT22;54685;52.082;5.426;2024-02-04T15:47:48;11.10;99.90
67890;DHT22;54685;52.082;5.426;2024-02-04T15:50:17;11.10;99.90
67890;DHT22;54685;52.082;5.426;2024-02-04T15:52:44;11.20;99.90
67890;DHT22;54685;52.082;5.426;2024-02-04T15:55:17;11.10;99.90
67890;DHT22;54685;52.082;5.426;2024-02-04T15:57:48;11.10;99.90